| time (UTC) | temp F | wind direction | speed knots | gust knots | rain 1hr in | rain 24hr in | rain mn in | humidity % | barometer mb |
| 20260510060039 | 52 | 0 | 0.0 | 4.3 | 0.00 | 0.10 | 0.00 | 100 | 1002.6 |
| 20260510054537 | 52 | 0 | 0.0 | 6.1 | 0.00 | 0.10 | 0.00 | 100 | 1002.5 |
| 20260510053043 | 52 | 0 | 0.0 | 8.7 | 0.00 | 0.10 | 0.00 | 100 | 1002.4 |
| 20260510051546 | 53 | 0 | 0.0 | 4.3 | 0.00 | 0.10 | 0.00 | 100 | 1002.3 |
| 20260510050042 | 53 | 0 | 0.0 | 7.0 | 0.00 | 0.10 | 0.00 | 100 | 1002.1 |
| 20260510044541 | 53 | 0 | 0.0 | 7.0 | 0.00 | 0.10 | 0.00 | 100 | 1001.6 |
| 20260510043042 | 54 | 188 | 0.0 | 3.5 | 0.00 | 0.10 | 0.00 | 100 | 1001.4 |
| 20260510041537 | 54 | 212 | 0.0 | 6.1 | 0.00 | 0.10 | 0.00 | 100 | 1001.2 |
| 20260510040037 | 54 | 0 | 0.0 | 2.6 | 0.02 | 0.10 | 0.00 | 100 | 1001.3 |
| 20260510034547 | 53 | 0 | 0.0 | 2.6 | 0.08 | 0.10 | 0.10 | 100 | 1001.3 |
| 20260510033051 | 54 | 0 | 0.0 | 3.5 | 0.10 | 0.10 | 0.10 | 100 | 1001.3 |
| 20260510031539 | 54 | 0 | 0.0 | 2.6 | 0.09 | 0.09 | 0.09 | 100 | 1001.1 |
| 20260510030042 | 55 | 0 | 0.0 | 3.5 | 0.07 | 0.07 | 0.07 | 100 | 1001.3 |
| 20260510024540 | 57 | 0 | 0.0 | 3.5 | 0.00 | 0.00 | 0.00 | 39 | 1001.4 |
| 20260510023037 | 58 | 0 | 0.0 | 3.5 | 0.00 | 0.00 | 0.00 | 59 | 1000.7 |
| 20260510021543 | 58 | 0 | 0.0 | 2.6 | 0.00 | 0.00 | 0.00 | 60 | 1000.6 |
| 20260510020045 | 58 | 119 | 0.0 | 2.6 | 0.00 | 0.00 | 0.00 | 60 | 1000.7 |
| 20260510014545 | 59 | 0 | 0.0 | 0.9 | 0.00 | 0.00 | 0.00 | 61 | 1001.1 |
| 20260510013038 | 59 | 0 | 0.0 | 0.0 | 0.00 | 0.00 | 0.00 | 61 | 1001.2 |
| 20260510011542 | 60 | 0 | 0.0 | 0.9 | 0.00 | 0.00 | 0.00 | 60 | 1001.2 |
| 20260510010038 | 60 | 137 | 0.0 | 0.0 | 0.00 | 0.00 | 0.00 | 59 | 1001.2 |
| 20260510004538 | 61 | 0 | 0.0 | 1.7 | 0.00 | 0.00 | 0.00 | 59 | 1001.2 |
| 20260510003042 | 61 | 0 | 0.0 | 0.0 | 0.00 | 0.00 | 0.00 | 58 | 1001.3 |
| 20260510001542 | 62 | 0 | 0.0 | 2.6 | 0.00 | 0.00 | 0.00 | 57 | 1001.6 |
| 20260510000059 | 62 | 0 | 0.0 | 5.2 | 0.00 | 0.00 | 0.00 | 56 | 1001.7 |
| 20260509234550 | 63 | 0 | 0.0 | 7.8 | 0.00 | 0.00 | 0.00 | 55 | 1002.1 |
| 20260509233036 | 63 | 180 | 0.9 | 6.1 | 0.00 | 0.00 | 0.00 | 53 | 1002.0 |
| 20260509231535 | 64 | 0 | 0.9 | 13.0 | 0.00 | 0.00 | 0.00 | 50 | 1002.0 |
| 20260509230043 | 65 | 232 | 0.9 | 5.2 | 0.00 | 0.00 | 0.00 | 44 | 1001.6 |
| 20260509224541 | 65 | 0 | 0.0 | 5.2 | 0.00 | 0.00 | 0.00 | 43 | 1001.5 |
| 20260509223042 | 66 | 0 | 0.0 | 3.5 | 0.00 | 0.00 | 0.00 | 42 | 1001.3 |
| 20260509221543 | 66 | 0 | 0.0 | 7.0 | 0.00 | 0.00 | 0.00 | 40 | 1001.3 |
| 20260509220039 | 67 | 0 | 0.0 | 9.6 | 0.00 | 0.00 | 0.00 | 39 | 1001.4 |
| 20260509214537 | 67 | 0 | 0.0 | 5.2 | 0.00 | 0.00 | 0.00 | 37 | 1001.6 |
| 20260509213043 | 67 | 0 | 0.0 | 5.2 | 0.00 | 0.00 | 0.00 | 37 | 1001.7 |
| 20260509211542 | 68 | 0 | 0.0 | 7.0 | 0.00 | 0.00 | 0.00 | 34 | 1001.7 |
| 20260509210045 | 70 | 131 | 0.0 | 7.0 | 0.00 | 0.00 | 0.00 | 32 | 1001.8 |
| 20260509204546 | 71 | 0 | 0.9 | 10.4 | 0.00 | 0.00 | 0.00 | 29 | 1001.7 |
| 20260509203043 | 72 | 0 | 0.0 | 8.7 | 0.00 | 0.00 | 0.00 | 27 | 1001.8 |
| 20260509201546 | 72 | 0 | 0.9 | 7.0 | 0.00 | 0.00 | 0.00 | 26 | 1001.9 |
| 20260509200055 | 72 | 0 | 0.9 | 7.8 | 0.00 | 0.00 | 0.00 | 24 | 1002.2 |
| 20260509194540 | 71 | 0 | 0.0 | 8.7 | 0.00 | 0.00 | 0.00 | 25 | 1002.2 |
| 20260509193039 | 71 | 0 | 0.0 | 6.1 | 0.00 | 0.00 | 0.00 | 26 | 1002.3 |
| 20260509191537 | 70 | 0 | 0.0 | 7.0 | 0.00 | 0.00 | 0.00 | 26 | 1002.4 |
| 20260509190041 | 69 | 125 | 0.0 | 6.1 | 0.00 | 0.00 | 0.00 | 26 | 1002.8 |
| 20260509184555 | 69 | 0 | 0.0 | 2.6 | 0.00 | 0.00 | 0.00 | 27 | 1003.1 |
| 20260509183039 | 69 | 117 | 0.0 | 8.7 | 0.00 | 0.00 | 0.00 | 25 | 1003.6 |
| 20260509181545 | 69 | 0 | 0.0 | 5.2 | 0.00 | 0.00 | 0.00 | 27 | 1003.7 |
| 20260509180044 | 69 | 235 | 0.0 | 7.0 | 0.00 | 0.00 | 0.00 | 27 | 1004.1 |
| 20260509174543 | 69 | 0 | 0.0 | 9.6 | 0.00 | 0.00 | 0.00 | 27 | 1004.0 |
| 20260509173044 | 69 | 0 | 0.0 | 6.1 | 0.00 | 0.00 | 0.00 | 27 | 1004.0 |
| 20260509171539 | 69 | 0 | 0.0 | 5.2 | 0.00 | 0.00 | 0.00 | 28 | 1004.4 |
| 20260509170039 | 68 | 198 | 0.0 | 7.0 | 0.00 | 0.00 | 0.00 | 28 | 1004.9 |
| 20260509164537 | 67 | 0 | 0.0 | 5.2 | 0.00 | 0.00 | 0.00 | 29 | 1005.1 |
| 20260509163040 | 66 | 0 | 0.0 | 7.0 | 0.00 | 0.00 | 0.00 | 29 | 1005.4 |
| 20260509161539 | 66 | 250 | 0.0 | 5.2 | 0.00 | 0.00 | 0.00 | 31 | 1005.6 |
| 20260509160044 | 65 | 0 | 0.0 | 7.0 | 0.00 | 0.00 | 0.00 | 33 | 1005.8 |
| 20260509154541 | 63 | 0 | 0.0 | 1.7 | 0.00 | 0.00 | 0.00 | 37 | 1006.2 |
| 20260509153043 | 62 | 0 | 0.0 | 1.7 | 0.00 | 0.00 | 0.00 | 41 | 1006.7 |
| 20260509151544 | 61 | 0 | 0.0 | 3.5 | 0.00 | 0.00 | 0.00 | 41 | 1007.1 |
| 20260509150044 | 60 | 0 | 0.9 | 6.1 | 0.00 | 0.00 | 0.00 | 43 | 1007.3 |
| 20260509144555 | 58 | 0 | 0.0 | 5.2 | 0.00 | 0.00 | 0.00 | 44 | 1007.4 |
| 20260509143040 | 56 | 0 | 0.9 | 7.0 | 0.00 | 0.00 | 0.00 | 47 | 1007.5 |
| 20260509141540 | 55 | 0 | 0.0 | 0.0 | 0.00 | 0.00 | 0.00 | 49 | 1007.7 |
| 20260509140044 | 53 | 0 | 0.0 | 0.9 | 0.00 | 0.00 | 0.00 | 50 | 1007.8 |
| 20260509134559 | 52 | 0 | 0.0 | 0.9 | 0.00 | 0.00 | 0.00 | 51 | 1007.9 |
| 20260509133045 | 50 | 0 | 0.0 | 0.9 | 0.00 | 0.00 | 0.00 | 52 | 1008.1 |
| 20260509131539 | 50 | 0 | 0.0 | 1.7 | 0.00 | 0.00 | 0.00 | 54 | 1008.3 |
| 20260509130052 | 49 | 0 | 0.0 | 2.6 | 0.00 | 0.00 | 0.00 | 54 | 1008.4 |
| 20260509124538 | 47 | 89 | 0.0 | 0.0 | 0.00 | 0.00 | 0.00 | 57 | 1008.5 |
| 20260509123035 | 46 | 0 | 0.0 | 0.0 | 0.00 | 0.00 | 0.00 | 59 | 1008.7 |
| 20260509121600 | 45 | 0 | 0.0 | 0.0 | 0.00 | 0.00 | 0.00 | 60 | 1008.7 |
| 20260509120039 | 44 | 0 | 0.0 | 3.5 | 0.00 | 0.00 | 0.00 | 60 | 1008.8 |
| 20260509114540 | 43 | 0 | 0.0 | 1.7 | 0.00 | 0.00 | 0.00 | 62 | 1008.7 |
| 20260509113039 | 41 | 0 | 0.0 | 0.9 | 0.00 | 0.00 | 0.00 | 59 | 1008.6 |
| 20260509111558 | 40 | 0 | 0.0 | 0.9 | 0.00 | 0.00 | 0.00 | 52 | 1008.6 |
| 20260509110042 | 38 | 0 | 0.0 | 0.0 | 0.00 | 0.00 | 0.00 | 50 | 1008.4 |
| 20260509104545 | 38 | 0 | 0.0 | 0.9 | 0.00 | 0.00 | 0.00 | 49 | 1008.4 |
| 20260509103048 | 38 | 0 | 0.0 | 0.0 | 0.00 | 0.00 | 0.00 | 52 | 1008.1 |
| 20260509101608 | 38 | 0 | 0.0 | 0.0 | 0.00 | 0.00 | 0.00 | 53 | 1008.0 |
| 20260509100042 | 38 | 0 | 0.0 | 0.0 | 0.00 | 0.00 | 0.00 | 53 | 1007.9 |
| 20260509094543 | 39 | 0 | 0.0 | 0.0 | 0.00 | 0.00 | 0.00 | 54 | 1008.0 |
| 20260509093043 | 39 | 0 | 0.0 | 0.0 | 0.00 | 0.00 | 0.00 | 54 | 1007.8 |
| 20260509091543 | 39 | 0 | 0.0 | 0.0 | 0.00 | 0.00 | 0.00 | 54 | 1007.9 |
| 20260509090101 | 39 | 0 | 0.0 | 0.0 | 0.00 | 0.00 | 0.00 | 55 | 1007.8 |
| 20260509084538 | 39 | 0 | 0.0 | 0.0 | 0.00 | 0.00 | 0.00 | 56 | 1007.9 |
| 20260509083042 | 39 | 0 | 0.0 | 0.0 | 0.00 | 0.00 | 0.00 | 58 | 1007.9 |
| 20260509081543 | 39 | 0 | 0.0 | 0.0 | 0.00 | 0.00 | 0.00 | 61 | 1008.0 |
| 20260509080038 | 39 | 0 | 0.0 | 0.0 | 0.00 | 0.00 | 0.00 | 63 | 1007.8 |
| 20260509074544 | 40 | 0 | 0.0 | 0.0 | 0.00 | 0.00 | 0.00 | 63 | 1007.9 |
| 20260509073053 | 41 | 0 | 0.0 | 0.0 | 0.00 | 0.00 | 0.00 | 64 | 1007.9 |
| 20260509071547 | 41 | 0 | 0.0 | 0.0 | 0.00 | 0.00 | 0.00 | 64 | 1007.9 |
| 20260509070045 | 42 | 0 | 0.0 | 0.0 | 0.00 | 0.00 | 0.00 | 65 | 1007.9 |
| 20260509064546 | 43 | 0 | 0.0 | 0.0 | 0.00 | 0.00 | 0.00 | 65 | 1008.0 |
| 20260509063038 | 44 | 0 | 0.0 | 0.0 | 0.00 | 0.00 | 0.00 | 64 | 1008.0 |
| 20260509061536 | 44 | 0 | 0.0 | 0.0 | 0.00 | 0.00 | 0.00 | 64 | 1008.0 |